Time;durP1;ratioP1;P1;durP2;ratioP2;P2;SDS_P1;SDS_P2;PMS_P1;PMS_P2;Temp;Humidity;BMP_temperature;BMP_pressure;BME280_temperature;BME280_humidity;BME280_pressure;Samples;Min_cycle;Max_cycle;Signal;HPM_P1;HPM_P2
2023/03/16 00:02:03;;;;;;;6.90;2.17;;;4.50;93.70;;;;;;5012875;28;19956;-69
2023/03/16 00:04:30;;;;;;;4.28;1.77;;;4.50;93.50;;;;;;5013991;28;20026;-71
2023/03/16 00:06:56;;;;;;;7.57;2.42;;;4.50;93.50;;;;;;5012993;28;20026;-70
2023/03/16 00:09:29;;;;;;;7.18;2.40;;;4.50;93.60;;;;;;5013815;28;20115;-69
2023/03/16 00:12:04;;;;;;;9.40;2.40;;;4.50;93.50;;;;;;5014233;28;20029;-70
2023/03/16 00:14:31;;;;;;;9.48;2.22;;;4.40;93.60;;;;;;5014028;28;20029;-69
2023/03/16 00:16:57;;;;;;;10.88;2.65;;;4.60;93.60;;;;;;5012650;28;20077;-69
2023/03/16 00:19:23;;;;;;;6.82;1.95;;;4.50;93.50;;;;;;5013674;28;20081;-69
2023/03/16 00:21:52;;;;;;;12.55;2.40;;;4.30;93.60;;;;;;5013686;28;20037;-69
2023/03/16 00:24:18;;;;;;;8.18;3.00;;;4.40;93.70;;;;;;5012663;28;20054;-70
2023/03/16 00:26:47;;;;;;;9.65;2.55;;;4.40;93.40;;;;;;5013994;28;20033;-69
2023/03/16 00:29:13;;;;;;;9.90;3.85;;;4.40;93.50;;;;;;5013898;28;20030;-70
2023/03/16 00:31:42;;;;;;;10.50;2.15;;;4.40;93.50;;;;;;5013266;28;20048;-70
2023/03/16 00:34:09;;;;;;;7.40;1.98;;;4.30;93.60;;;;;;5013668;28;20045;-70
2023/03/16 00:36:37;;;;;;;7.90;2.00;;;4.30;93.70;;;;;;5013397;28;20185;-70
2023/03/16 00:39:06;;;;;;;16.02;1.98;;;4.20;93.80;;;;;;5013380;28;20018;-70
2023/03/16 00:41:36;;;;;;;4.47;1.98;;;4.20;93.70;;;;;;5012776;28;20026;-70
2023/03/16 00:44:05;;;;;;;8.60;1.42;;;4.20;93.60;;;;;;5013334;28;20026;-71
2023/03/16 00:46:31;;;;;;;7.55;1.95;;;4.20;93.60;;;;;;5012253;28;20030;-70
2023/03/16 00:48:57;;;;;;;14.43;2.17;;;4.20;93.70;;;;;;5011658;28;20040;-71
2023/03/16 00:51:23;;;;;;;8.38;1.88;;;4.20;93.80;;;;;;5013115;28;20046;-71
2023/03/16 00:53:48;;;;;;;6.53;2.05;;;4.20;93.70;;;;;;5013761;28;20026;-69
2023/03/16 00:56:15;;;;;;;13.18;1.80;;;4.20;93.60;;;;;;5013287;28;20030;-69
2023/03/16 00:58:42;;;;;;;5.82;1.80;;;4.20;93.80;;;;;;5013204;28;20114;-69
2023/03/16 01:01:13;;;;;;;4.50;1.63;;;4.20;93.70;;;;;;5011944;28;20505;-70
2023/03/16 01:03:39;;;;;;;9.48;3.05;;;4.20;93.70;;;;;;5013212;28;20129;-70
2023/03/16 01:06:09;;;;;;;8.02;1.80;;;4.20;93.60;;;;;;5013093;28;20384;-69
2023/03/16 01:08:36;;;;;;;7.13;1.80;;;4.30;93.60;;;;;;5012093;28;20037;-70
2023/03/16 01:11:09;;;;;;;6.88;2.13;;;4.20;93.70;;;;;;5012116;28;20065;-69
2023/03/16 01:13:35;;;;;;;7.97;1.85;;;4.20;93.70;;;;;;5012903;28;20459;-70
2023/03/16 01:16:03;;;;;;;7.20;1.95;;;4.20;93.70;;;;;;5013090;28;20034;-70
2023/03/16 01:18:33;;;;;;;7.22;1.77;;;4.20;93.70;;;;;;5013003;28;20420;-71
2023/03/16 01:21:02;;;;;;;4.65;1.50;;;4.20;93.80;;;;;;5013120;28;20417;-71
2023/03/16 01:23:31;;;;;;;6.35;1.52;;;4.10;93.80;;;;;;5011767;28;20033;-70
2023/03/16 01:25:57;;;;;;;13.75;2.15;;;4.10;94.00;;;;;;5012474;28;20033;-71
2023/03/16 01:28:26;;;;;;;7.82;1.48;;;4.00;94.30;;;;;;5012851;28;20041;-70
2023/03/16 01:30:56;;;;;;;8.88;1.92;;;4.00;94.20;;;;;;5012437;28;20384;-69
2023/03/16 01:33:24;;;;;;;7.15;2.08;;;4.10;94.00;;;;;;5012595;28;20487;-69
2023/03/16 01:35:54;;;;;;;;;;;4.10;94.10;;;;;;5013568;28;20026;-71
2023/03/16 01:38:20;;;;;;;5.57;1.60;;;4.00;94.10;;;;;;5011524;28;20261;-71
2023/03/16 01:40:50;;;;;;;16.63;2.15;;;4.10;94.10;;;;;;5012409;28;20753;-70
2023/03/16 01:43:18;;;;;;;7.70;1.48;;;4.10;94.10;;;;;;5012557;28;20038;-70
2023/03/16 01:46:05;;;;;;;3.90;1.63;;;4.00;94.10;;;;;;5012748;28;20034;-71
2023/03/16 01:49:08;;;;;;;5.63;1.60;;;4.00;94.20;;;;;;5012482;28;20030;-70
2023/03/16 01:51:50;;;;;;;6.60;1.63;;;4.10;94.10;;;;;;5011754;28;20037;-71
2023/03/16 01:54:22;;;;;;;5.05;1.75;;;4.00;94.10;;;;;;5012400;28;20050;-70
2023/03/16 01:56:55;;;;;;;6.45;1.88;;;4.00;94.10;;;;;;5011521;28;20026;-70
2023/03/16 01:59:25;;;;;;;8.32;1.92;;;4.10;94.10;;;;;;5012199;28;20538;-70
2023/03/16 02:01:51;;;;;;;13.65;1.98;;;4.00;94.10;;;;;;5011851;28;20432;-70
2023/03/16 02:04:32;;;;;;;10.10;1.85;;;4.00;94.30;;;;;;5011043;28;20117;-69
2023/03/16 02:06:59;;;;;;;3.47;1.50;;;3.90;94.30;;;;;;5012314;28;20026;-70
2023/03/16 02:09:26;;;;;;;7.32;1.70;;;4.00;94.30;;;;;;5010878;28;20033;-69
2023/03/16 02:11:53;;;;;;;7.05;1.77;;;4.00;94.30;;;;;;5012357;28;20037;-70
2023/03/16 02:14:19;;;;;;;10.20;2.13;;;4.00;94.30;;;;;;5011769;28;20052;-70
2023/03/16 02:16:46;;;;;;;8.75;1.95;;;3.90;94.40;;;;;;5011654;28;20353;-69
2023/03/16 02:19:18;;;;;;;3.20;1.75;;;4.00;94.40;;;;;;5010635;28;20123;-70
2023/03/16 02:21:56;;;;;;;9.75;2.10;;;3.80;94.40;;;;;;5009998;28;20030;-70
2023/03/16 02:24:22;;;;;;;5.35;1.83;;;3.80;94.50;;;;;;5011733;28;20437;-70
2023/03/16 02:27:03;;;;;;;5.68;1.67;;;3.90;94.40;;;;;;5011086;28;20032;-71
2023/03/16 02:30:01;;;;;;;8.50;2.10;;;3.80;94.40;;;;;;5011748;28;20034;-71
2023/03/16 02:32:29;;;;;;;2.97;1.67;;;3.80;94.50;;;;;;5011605;28;20046;-70
2023/03/16 02:34:55;;;;;;;;;;;3.80;94.60;;;;;;5012893;28;20034;-71
2023/03/16 02:37:21;;;;;;;6.88;2.03;;;3.80;94.50;;;;;;5031296;28;20303;-70
2023/03/16 02:39:47;;;;;;;6.28;1.77;;;3.90;94.40;;;;;;5029735;28;20399;-70
2023/03/16 02:42:17;;;;;;;5.22;1.90;;;3.80;94.40;;;;;;5029946;28;20048;-69
2023/03/16 02:44:49;;;;;;;9.00;2.05;;;3.80;94.40;;;;;;5030498;28;20642;-69
2023/03/16 02:47:42;;;;;;;9.43;2.25;;;3.70;94.50;;;;;;5029829;28;20037;-70
2023/03/16 02:50:09;;;;;;;9.00;1.83;;;3.70;94.60;;;;;;5028132;28;20028;-69
2023/03/16 02:52:37;;;;;;;4.80;2.00;;;3.70;94.50;;;;;;5030114;28;20036;-70
2023/03/16 02:55:06;;;;;;;9.48;1.95;;;3.70;94.40;;;;;;5031257;28;20118;-71
2023/03/16 02:57:32;;;;;;;10.63;2.15;;;3.60;94.50;;;;;;5031086;28;20041;-69
2023/03/16 02:59:58;;;;;;;3.78;1.63;;;3.60;94.50;;;;;;5031360;28;20037;-69
2023/03/16 03:02:24;;;;;;;8.48;2.05;;;3.50;94.70;;;;;;5031209;28;20030;-69
2023/03/16 03:04:53;;;;;;;5.32;2.10;;;3.40;94.70;;;;;;5030961;28;20037;-70
2023/03/16 03:07:20;;;;;;;3.92;1.60;;;3.40;94.80;;;;;;5030753;28;20483;-69
2023/03/16 03:09:46;;;;;;;5.22;2.03;;;3.40;94.70;;;;;;5030653;28;20029;-68
2023/03/16 03:12:12;;;;;;;5.55;1.60;;;3.50;94.60;;;;;;5030722;28;20025;-69
2023/03/16 03:14:38;;;;;;;5.00;1.70;;;3.50;94.60;;;;;;5029894;28;20443;-69
2023/03/16 03:17:06;;;;;;;10.40;2.22;;;3.40;94.70;;;;;;5030633;28;20112;-70
2023/03/16 03:19:32;;;;;;;8.80;1.77;;;3.40;94.60;;;;;;5030617;28;20034;-70
2023/03/16 03:21:59;;;;;;;5.60;1.65;;;3.50;94.50;;;;;;5030751;28;20112;-70
2023/03/16 03:24:26;;;;;;;9.68;2.03;;;3.50;94.40;;;;;;5030507;28;20037;-70
2023/03/16 03:26:52;;;;;;;7.00;1.60;;;3.40;94.20;;;;;;5031307;28;20017;-71
2023/03/16 03:29:18;;;;;;;7.80;1.77;;;3.50;94.40;;;;;;5029330;28;20441;-70
2023/03/16 03:31:44;;;;;;;9.98;1.67;;;3.50;94.20;;;;;;5031155;28;20402;-70
2023/03/16 03:34:10;;;;;;;3.78;1.50;;;3.70;94.30;;;;;;5034745;28;20456;-71
2023/03/16 03:36:36;;;;;;;9.45;1.83;;;3.50;94.30;;;;;;5033368;28;20467;-69
2023/03/16 03:39:05;;;;;;;4.03;1.70;;;3.40;94.30;;;;;;5034572;28;20041;-69
2023/03/16 03:41:32;;;;;;;7.95;2.38;;;3.40;94.40;;;;;;5033907;28;20439;-70
2023/03/16 03:43:59;;;;;;;11.82;2.13;;;3.40;94.40;;;;;;5034383;28;20091;-70
2023/03/16 03:46:25;;;;;;;6.78;1.98;;;3.40;94.50;;;;;;5033206;28;20030;-71
2023/03/16 03:48:51;;;;;;;3.72;1.30;;;3.40;94.40;;;;;;5034396;28;20122;-70
2023/03/16 03:51:17;;;;;;;4.15;1.30;;;3.40;94.20;;;;;;5034234;28;20056;-70
2023/03/16 03:53:43;;;;;;;5.55;1.27;;;3.40;94.30;;;;;;5034619;28;20475;-70
2023/03/16 03:56:08;;;;;;;11.10;1.58;;;3.40;94.20;;;;;;5034254;28;20072;-70
2023/03/16 03:58:34;;;;;;;5.88;1.75;;;3.40;94.30;;;;;;5032974;28;20037;-70
2023/03/16 04:00:59;;;;;;;6.35;1.75;;;3.40;94.20;;;;;;5033958;28;20367;-70
2023/03/16 04:03:25;;;;;;;5.07;1.48;;;3.40;94.20;;;;;;5033997;28;20029;-69
2023/03/16 04:05:51;;;;;;;4.57;1.50;;;3.40;94.20;;;;;;5034421;28;20052;-69
2023/03/16 04:08:17;;;;;;;5.65;1.48;;;3.40;94.20;;;;;;5033860;28;20353;-70
2023/03/16 04:10:43;;;;;;;3.88;1.52;;;3.40;94.20;;;;;;5032851;28;20025;-69
2023/03/16 04:13:09;;;;;;;9.52;1.80;;;3.40;94.30;;;;;;5033702;28;20112;-69
2023/03/16 04:15:37;;;;;;;6.78;1.88;;;3.40;94.00;;;;;;5033773;28;20492;-69
2023/03/16 04:18:03;;;;;;;8.48;2.25;;;3.40;94.00;;;;;;5033846;28;20436;-68
2023/03/16 04:20:28;;;;;;;5.35;1.55;;;3.40;93.90;;;;;;5034098;28;20083;-68
2023/03/16 04:22:57;;;;;;;6.63;1.50;;;3.40;93.90;;;;;;5033753;28;20120;-70
2023/03/16 04:25:25;;;;;;;5.80;1.48;;;3.50;93.90;;;;;;5033375;28;20026;-70
2023/03/16 04:27:51;;;;;;;8.73;2.00;;;3.50;93.70;;;;;;5032409;28;20384;-70
2023/03/16 04:30:16;;;;;;;6.22;1.67;;;3.60;93.60;;;;;;5033315;28;20060;-70
2023/03/16 04:32:42;;;;;;;7.90;1.45;;;3.60;93.50;;;;;;5033877;28;20041;-70
2023/03/16 04:35:09;;;;;;;9.55;1.75;;;3.60;93.50;;;;;;5033554;28;20030;-69
2023/03/16 04:37:35;;;;;;;3.72;1.48;;;3.50;93.50;;;;;;5033294;28;20373;-70
2023/03/16 04:40:08;;;;;;;8.30;1.50;;;3.50;93.50;;;;;;5033300;28;20052;-70
2023/03/16 04:42:34;;;;;;;4.82;1.40;;;3.50;93.60;;;;;;5033536;28;20033;-70
2023/03/16 04:45:00;;;;;;;3.95;1.38;;;3.50;93.60;;;;;;5032966;28;20100;-70
2023/03/16 04:47:26;;;;;;;11.70;1.30;;;3.50;93.60;;;;;;5033516;28;20116;-70
2023/03/16 04:49:52;;;;;;;7.40;1.58;;;3.50;93.50;;;;;;5032418;28;20044;-68
2023/03/16 04:52:18;;;;;;;6.10;1.33;;;3.50;93.40;;;;;;5033073;28;20038;-69
2023/03/16 04:54:44;;;;;;;9.75;1.83;;;3.50;93.50;;;;;;5033146;28;20045;-69
2023/03/16 04:57:10;;;;;;;9.43;1.33;;;3.50;93.60;;;;;;5033124;28;20056;-69
2023/03/16 04:59:35;;;;;;;6.57;1.58;;;3.50;93.60;;;;;;5033355;28;20395;-69
2023/03/16 05:02:01;;;;;;;12.52;1.60;;;3.50;93.50;;;;;;5033001;28;20033;-69
2023/03/16 05:04:27;;;;;;;7.65;2.00;;;3.60;93.50;;;;;;5032903;28;20456;-68
2023/03/16 05:06:52;;;;;;;8.02;1.77;;;3.60;93.50;;;;;;5033007;28;20044;-70
2023/03/16 05:09:19;;;;;;;3.17;1.13;;;3.60;93.40;;;;;;5033042;28;20028;-70
2023/03/16 05:11:45;;;;;;;3.40;1.20;;;3.50;93.40;;;;;;5031959;28;20033;-70
2023/03/16 05:14:11;;;;;;;13.90;2.00;;;3.50;93.30;;;;;;5032730;28;20025;-70
2023/03/16 05:16:36;;;;;;;5.68;1.42;;;3.50;93.30;;;;;;5032860;28;20480;-69
2023/03/16 05:19:03;;;;;;;9.38;1.75;;;3.60;93.30;;;;;;5032848;28;20040;-69
2023/03/16 05:21:30;;;;;;;4.25;1.30;;;3.50;93.20;;;;;;5032621;28;20371;-70
2023/03/16 05:23:57;;;;;;;4.75;1.38;;;3.50;93.20;;;;;;5033003;28;20122;-70
2023/03/16 05:26:24;;;;;;;5.22;1.25;;;3.60;93.10;;;;;;5031410;28;20268;-69
2023/03/16 05:28:50;;;;;;;3.55;1.40;;;3.60;93.10;;;;;;5031492;28;20090;-70
2023/03/16 05:31:17;;;;;;;6.18;1.35;;;3.60;93.10;;;;;;5031193;28;20053;-71
2023/03/16 05:33:43;;;;;;;11.38;1.92;;;3.60;93.20;;;;;;5032688;28;20327;-70
2023/03/16 05:36:09;;;;;;;4.10;1.33;;;3.60;93.20;;;;;;5032532;28;20053;-70
2023/03/16 05:38:35;;;;;;;9.57;2.08;;;3.50;93.20;;;;;;5031649;28;20030;-71
2023/03/16 05:41:03;;;;;;;10.15;1.70;;;3.60;93.30;;;;;;5032419;28;20338;-70
2023/03/16 05:43:29;;;;;;;8.15;1.30;;;3.60;93.20;;;;;;5032014;28;20037;-69
2023/03/16 05:45:56;;;;;;;4.90;1.55;;;3.60;93.30;;;;;;5032210;28;20036;-71
2023/03/16 05:48:24;;;;;;;6.03;1.67;;;3.60;93.40;;;;;;5032386;28;20120;-70
2023/03/16 05:50:51;;;;;;;8.25;2.17;;;3.60;93.30;;;;;;5032515;28;20412;-71
2023/03/16 05:53:17;;;;;;;6.95;1.33;;;3.60;93.40;;;;;;5031896;28;20040;-70
2023/03/16 05:55:43;;;;;;;5.47;1.27;;;3.60;93.40;;;;;;5030019;28;20125;-70
2023/03/16 05:58:08;;;;;;;6.38;1.90;;;3.60;93.60;;;;;;5031882;28;20120;-71
2023/03/16 06:00:34;;;;;;;9.63;1.42;;;3.60;93.60;;;;;;5032063;28;20459;-70
2023/03/16 06:03:00;;;;;;;10.77;1.85;;;3.60;93.60;;;;;;5031311;28;20451;-70
2023/03/16 06:05:27;;;;;;;10.32;1.45;;;3.50;93.70;;;;;;5032513;28;20099;-70
2023/03/16 06:07:53;;;;;;;5.15;1.30;;;3.50;93.50;;;;;;5031612;28;20043;-70
2023/03/16 06:10:20;;;;;;;5.40;1.35;;;3.60;93.40;;;;;;5031586;28;20111;-69
2023/03/16 06:12:46;;;;;;;5.60;1.40;;;3.60;93.50;;;;;;5030595;28;20032;-70
2023/03/16 06:15:12;;;;;;;3.63;1.40;;;3.70;93.60;;;;;;5031453;28;20025;-70
2023/03/16 06:17:39;;;;;;;6.45;1.45;;;3.70;93.70;;;;;;5031931;28;20017;-70
2023/03/16 06:20:12;;;;;;;9.77;1.10;;;3.80;93.60;;;;;;5031657;28;20033;-70
2023/03/16 06:22:40;;;;;;;14.80;1.55;;;3.70;93.70;;;;;;5031182;28;20048;-70
2023/03/16 06:25:07;;;;;;;8.13;1.67;;;3.70;93.70;;;;;;5030419;28;20029;-70
2023/03/16 06:27:33;;;;;;;17.50;1.65;;;3.80;93.70;;;;;;5031367;28;20049;-70
2023/03/16 06:29:58;;;;;;;7.60;2.03;;;3.90;93.60;;;;;;5030620;28;20049;-71
2023/03/16 06:32:24;;;;;;;6.28;1.65;;;4.00;93.50;;;;;;5030058;28;20033;-70
2023/03/16 06:34:50;;;;;;;11.07;1.70;;;4.00;93.50;;;;;;5030023;28;20421;-70
2023/03/16 06:37:15;;;;;;;5.07;1.40;;;4.00;93.60;;;;;;5031046;28;20084;-70
2023/03/16 06:39:41;;;;;;;2.55;1.38;;;4.00;93.60;;;;;;5030970;28;20033;-73
2023/03/16 06:42:07;;;;;;;8.02;1.67;;;4.10;93.50;;;;;;5030014;28;20319;-69
2023/03/16 06:44:32;;;;;;;9.60;1.90;;;4.10;93.40;;;;;;5031465;28;20412;-71
2023/03/16 06:46:59;;;;;;;7.82;1.45;;;4.20;93.40;;;;;;5031052;28;20064;-71
2023/03/16 06:49:24;;;;;;;9.40;1.88;;;4.20;93.40;;;;;;5019557;28;20041;-72
2023/03/16 06:51:50;;;;;;;7.32;1.73;;;4.20;93.30;;;;;;5010922;28;20030;-70
2023/03/16 06:54:16;;;;;;;8.30;1.92;;;4.40;93.30;;;;;;5011078;28;20022;-70
2023/03/16 06:56:41;;;;;;;5.93;1.50;;;4.50;93.20;;;;;;5010419;28;20041;-70
2023/03/16 06:59:07;;;;;;;8.18;1.75;;;4.60;93.20;;;;;;5010853;28;20036;-68
2023/03/16 07:01:33;;;;;;;13.30;2.10;;;4.60;93.30;;;;;;5011163;28;20058;-69
2023/03/16 07:03:59;;;;;;;14.27;1.75;;;4.70;93.20;;;;;;5009996;28;20524;-69
2023/03/16 07:06:24;;;;;;;7.68;1.80;;;4.80;93.00;;;;;;5009683;28;20032;-69
2023/03/16 07:08:50;;;;;;;3.88;1.50;;;4.90;93.00;;;;;;5011499;28;20021;-69
2023/03/16 07:11:16;;;;;;;10.95;2.45;;;5.00;93.00;;;;;;5010867;28;20037;-70
2023/03/16 07:13:43;;;;;;;7.25;1.80;;;5.00;93.00;;;;;;5011051;28;20061;-72
2023/03/16 07:16:08;;;;;;;8.13;1.88;;;5.20;92.90;;;;;;5010878;28;20030;-71
2023/03/16 07:18:36;;;;;;;7.65;2.10;;;5.30;93.10;;;;;;5011150;28;20026;-72
2023/03/16 07:21:02;;;;;;;2.33;1.27;;;5.30;92.70;;;;;;5009623;28;20030;-72
2023/03/16 07:23:28;;;;;;;7.00;1.98;;;5.30;92.70;;;;;;5010015;28;20033;-72
2023/03/16 07:25:54;;;;;;;3.15;1.58;;;5.40;92.70;;;;;;5009560;28;20026;-73
2023/03/16 07:28:20;;;;;;;4.78;1.65;;;5.40;92.50;;;;;;5010802;28;20121;-72
2023/03/16 07:30:46;;;;;;;11.55;2.20;;;5.50;92.70;;;;;;5010579;28;20292;-73
2023/03/16 07:33:12;;;;;;;8.45;1.75;;;5.60;92.70;;;;;;5010650;28;20053;-72
2023/03/16 07:35:38;;;;;;;3.28;1.48;;;5.50;92.50;;;;;;5010179;28;20478;-73
2023/03/16 07:38:03;;;;;;;7.63;2.38;;;5.80;92.40;;;;;;5009630;28;20030;-71
2023/03/16 07:40:29;;;;;;;8.60;2.05;;;5.90;92.20;;;;;;5010403;28;20468;-71
2023/03/16 07:42:55;;;;;;;8.70;1.80;;;6.00;92.10;;;;;;5010686;28;20124;-70
2023/03/16 07:45:21;;;;;;;10.48;1.90;;;6.10;92.10;;;;;;5009750;28;20041;-71
2023/03/16 07:47:47;;;;;;;7.45;1.50;;;6.20;92.00;;;;;;5011442;28;20030;-71
2023/03/16 07:50:15;;;;;;;7.22;1.42;;;6.40;91.80;;;;;;5011008;28;20038;-71
2023/03/16 07:52:42;;;;;;;7.05;1.65;;;6.40;91.50;;;;;;5010532;28;20038;-69
2023/03/16 07:55:09;;;;;;;4.55;1.52;;;6.50;91.60;;;;;;5010534;28;20314;-69
2023/03/16 07:57:34;;;;;;;6.78;1.80;;;6.70;91.50;;;;;;5009449;28;20038;-71
2023/03/16 08:00:04;;;;;;;7.63;2.22;;;6.80;91.30;;;;;;5010726;28;20081;-70
2023/03/16 08:02:30;;;;;;;5.55;1.60;;;6.80;91.00;;;;;;5010761;28;20145;-70
2023/03/16 08:04:55;;;;;;;5.97;1.65;;;6.90;91.00;;;;;;5010155;28;20030;-70
2023/03/16 08:07:21;;;;;;;7.70;1.90;;;7.00;90.70;;;;;;5010241;28;20432;-72
2023/03/16 08:09:47;;;;;;;17.83;3.00;;;7.10;90.80;;;;;;5010230;28;20045;-72
2023/03/16 08:12:12;;;;;;;12.77;4.03;;;7.10;90.50;;;;;;5010406;28;20457;-73
2023/03/16 08:14:38;;;;;;;10.30;1.95;;;7.20;90.30;;;;;;5011231;28;20030;-73
2023/03/16 08:17:06;;;;;;;4.60;1.42;;;7.20;90.00;;;;;;5010275;28;20165;-74
2023/03/16 08:19:32;;;;;;;5.93;1.35;;;7.50;90.10;;;;;;5012941;28;20069;-72
2023/03/16 08:22:00;;;;;;;6.50;1.60;;;7.50;90.30;;;;;;5014413;28;20052;-74
2023/03/16 08:24:26;;;;;;;9.65;1.92;;;7.60;89.30;;;;;;5015255;28;20037;-74
2023/03/16 08:26:52;;;;;;;5.13;1.80;;;7.70;88.70;;;;;;5015483;28;20460;-74
2023/03/16 08:29:18;;;;;;;4.30;1.58;;;7.80;87.40;;;;;;5013752;28;20093;-74
2023/03/16 08:31:44;;;;;;;5.85;1.45;;;7.80;86.40;;;;;;5013806;28;20487;-73
2023/03/16 08:34:10;;;;;;;6.22;0.98;;;7.90;86.00;;;;;;5015306;28;20037;-73
2023/03/16 08:36:36;;;;;;;6.95;1.45;;;7.90;85.40;;;;;;5015041;28;20187;-72
2023/03/16 08:39:04;;;;;;;4.60;1.05;;;7.90;85.10;;;;;;5014214;28;20030;-74
2023/03/16 08:41:31;;;;;;;5.25;1.33;;;8.00;85.00;;;;;;5014492;28;20116;-72
2023/03/16 08:43:58;;;;;;;5.90;1.10;;;8.10;85.00;;;;;;5014690;28;20109;-73
2023/03/16 08:46:24;;;;;;;7.43;1.40;;;8.10;83.70;;;;;;5014538;28;20188;-73
2023/03/16 08:48:51;;;;;;;5.03;1.88;;;8.20;83.70;;;;;;5014391;28;20484;-74
2023/03/16 08:51:17;;;;;;;9.18;2.60;;;8.30;82.90;;;;;;5014309;28;20356;-73
2023/03/16 08:53:43;;;;;;;7.30;1.50;;;8.30;82.60;;;;;;5014277;28;20022;-74
2023/03/16 08:56:13;;;;;;;4.47;1.15;;;8.30;82.10;;;;;;5013845;28;20041;-74
2023/03/16 08:58:44;;;;;;;3.47;1.02;;;8.30;82.00;;;;;;5013725;28;20037;-72
2023/03/16 09:01:16;;;;;;;4.57;1.08;;;8.50;81.90;;;;;;5012340;28;20041;-72
2023/03/16 09:03:44;;;;;;;4.55;1.13;;;8.60;81.00;;;;;;5013103;28;20037;-73
2023/03/16 09:06:13;;;;;;;4.00;1.30;;;8.80;80.70;;;;;;5014350;28;20336;-72
2023/03/16 09:08:39;;;;;;;5.70;1.20;;;8.90;79.60;;;;;;5014093;28;20037;-72
2023/03/16 09:11:17;;;;;;;5.95;1.17;;;9.80;78.70;;;;;;5011748;28;20041;-70
2023/03/16 09:13:44;;;;;;;8.23;1.40;;;10.80;75.00;;;;;;5012798;28;20140;-72
2023/03/16 09:16:11;;;;;;;4.68;0.77;;;11.90;72.80;;;;;;5012193;28;20040;-69
2023/03/16 09:18:37;;;;;;;5.07;1.15;;;12.80;69.40;;;;;;5013008;28;20034;-73
2023/03/16 09:21:05;;;;;;;6.20;2.15;;;13.30;68.20;;;;;;5012834;28;20327;-74
2023/03/16 09:23:33;;;;;;;5.40;1.30;;;14.00;68.70;;;;;;5012683;28;20084;-71
2023/03/16 09:26:04;;;;;;;5.10;1.10;;;14.70;64.40;;;;;;5012589;28;20084;-73
2023/03/16 09:28:30;;;;;;;7.13;1.10;;;15.60;63.80;;;;;;5013431;28;20651;-71
2023/03/16 09:30:56;;;;;;;3.17;1.05;;;16.10;60.60;;;;;;5012967;28;20472;-72
2023/03/16 09:33:24;;;;;;;11.25;2.33;;;16.80;59.00;;;;;;5013072;28;20399;-71
2023/03/16 09:35:51;;;;;;;4.40;1.25;;;17.10;56.20;;;;;;5013294;28;20499;-73
2023/03/16 09:38:18;;;;;;;1.33;0.80;;;17.40;54.00;;;;;;5013610;28;20046;-73
2023/03/16 09:40:47;;;;;;;1.80;1.02;;;17.50;52.80;;;;;;5013063;28;20034;-74
2023/03/16 09:43:37;;;;;;;3.75;2.05;;;17.00;51.10;;;;;;5011444;28;20041;-71
2023/03/16 09:46:30;;;;;;;2.83;1.58;;;17.00;50.90;;;;;;5011682;28;20388;-72
2023/03/16 09:48:57;;;;;;;1.80;0.90;;;17.40;50.50;;;;;;5011630;28;20025;-71
2023/03/16 09:51:35;;;;;;;3.75;1.30;;;17.10;50.00;;;;;;5012425;28;20468;-72
2023/03/16 09:54:05;;;;;;;3.42;1.13;;;17.50;49.00;;;;;;5012418;28;20085;-70
2023/03/16 09:56:40;;;;;;;5.05;0.85;;;17.60;48.90;;;;;;5011816;28;20026;-71
2023/03/16 10:05:38;;;;;;;5.43;0.93;;;17.30;46.10;;;;;;5012118;28;20404;-71
2023/03/16 10:08:07;;;;;;;1.95;0.75;;;17.50;46.90;;;;;;5011280;28;20044;-72
2023/03/16 10:10:42;;;;;;;2.08;0.70;;;18.20;45.80;;;;;;5012146;28;20029;-71
2023/03/16 10:13:26;;;;;;;2.78;0.98;;;18.50;46.10;;;;;;5012303;28;20036;-72
2023/03/16 10:15:52;;;;;;;4.15;0.93;;;18.70;43.90;;;;;;5012100;28;20472;-72
2023/03/16 10:18:27;;;;;;;7.85;1.00;;;18.90;44.60;;;;;;5012172;28;20088;-70
2023/03/16 10:20:54;;;;;;;2.50;0.90;;;18.80;44.40;;;;;;5011380;28;20360;-71
2023/03/16 10:23:23;;;;;;;3.17;0.90;;;18.90;43.80;;;;;;5011959;28;20026;-70
2023/03/16 10:25:53;;;;;;;3.55;0.80;;;18.70;43.90;;;;;;5011789;28;20052;-71
2023/03/16 10:28:25;;;;;;;5.13;1.20;;;19.20;44.10;;;;;;5010661;28;20037;-72
2023/03/16 10:30:53;;;;;;;8.13;1.17;;;19.20;43.10;;;;;;5011859;28;20042;-71
2023/03/16 10:33:30;;;;;;;1.60;0.60;;;19.10;42.90;;;;;;5011543;28;20018;-73
2023/03/16 10:36:18;;;;;;;2.67;0.93;;;19.10;42.60;;;;;;5011926;28;20014;-71
2023/03/16 10:38:45;;;;;;;;;;;18.60;41.90;;;;;;5012334;28;20037;-70
2023/03/16 10:41:17;;;;;;;3.03;0.70;;;19.00;42.00;;;;;;5011527;28;19913;-72
2023/03/16 10:43:50;;;;;;;2.40;0.82;;;18.60;41.50;;;;;;5011635;28;20032;-71
2023/03/16 10:46:18;;;;;;;8.00;1.65;;;18.90;43.00;;;;;;5010164;28;20105;-71
2023/03/16 10:48:53;;;;;;;2.78;1.05;;;19.00;41.90;;;;;;5011708;28;20038;-71
2023/03/16 10:51:24;;;;;;;5.60;1.73;;;18.50;41.30;;;;;;5011386;28;20551;-70
2023/03/16 10:53:51;;;;;;;3.60;1.30;;;17.90;42.00;;;;;;5011784;28;20045;-72
2023/03/16 10:56:27;;;;;;;1.95;0.68;;;18.10;41.50;;;;;;5013127;28;20034;-72
2023/03/16 10:58:53;;;;;;;1.88;0.73;;;18.40;41.60;;;;;;5011254;28;20169;-70
2023/03/16 11:01:27;;;;;;;4.18;1.00;;;18.80;41.50;;;;;;5010149;28;20138;-71
2023/03/16 11:03:55;;;;;;;3.83;0.88;;;18.80;41.80;;;;;;5011221;28;20041;-71
2023/03/16 11:06:31;;;;;;;;;;;18.90;41.60;;;;;;5011830;28;20132;-72
2023/03/16 11:09:21;;;;;;;3.42;1.00;;;19.20;41.70;;;;;;5011454;28;20358;-71
2023/03/16 11:11:49;;;;;;;7.40;1.33;;;19.30;40.90;;;;;;5010899;28;20211;-71
2023/03/16 11:14:19;;;;;;;4.65;1.00;;;20.00;41.30;;;;;;5011298;28;20464;-72
2023/03/16 11:17:08;;;;;;;1.52;0.85;;;20.10;40.40;;;;;;5011353;28;20042;-72
2023/03/16 11:19:40;;;;;;;2.45;0.93;;;20.90;41.60;;;;;;5010554;28;20030;-70
2023/03/16 11:22:32;;;;;;;2.30;1.05;;;21.00;40.10;;;;;;5010887;28;20165;-72
2023/03/16 11:25:32;;;;;;;3.85;0.93;;;20.60;39.20;;;;;;5010522;28;20121;-71
2023/03/16 11:28:37;;;;;;;5.38;0.90;;;20.90;39.20;;;;;;5009821;28;20041;-71
2023/03/16 11:31:08;;;;;;;4.03;0.88;;;20.60;39.00;;;;;;5010595;28;20046;-75
2023/03/16 11:33:34;;;;;;;28.40;14.95;;;20.50;38.20;;;;;;5010789;28;20084;-72
2023/03/16 11:36:30;;;;;;;5.80;1.73;;;20.10;38.70;;;;;;5011449;28;20396;-71
2023/03/16 11:39:11;;;;;;;2.90;0.88;;;19.80;39.20;;;;;;5009922;28;20030;-70
2023/03/16 11:42:18;;;;;;;1.90;0.90;;;19.30;39.60;;;;;;5009739;28;20116;-72
2023/03/16 11:45:00;;;;;;;4.07;0.88;;;18.60;39.90;;;;;;5010554;28;20053;-70
2023/03/16 11:48:02;;;;;;;2.85;1.10;;;18.60;39.90;;;;;;5009518;28;20113;-70
2023/03/16 11:51:01;;;;;;;2.55;1.40;;;18.40;39.40;;;;;;5010934;28;20349;-70
2023/03/16 11:53:32;;;;;;;4.10;1.33;;;18.20;39.70;;;;;;5011133;28;20073;-72
2023/03/16 11:56:19;;;;;;;1.13;0.82;;;17.70;40.40;;;;;;5014657;28;20041;-71
2023/03/16 11:59:06;;;;;;;8.93;1.02;;;17.30;41.10;;;;;;5014612;28;20058;-71
2023/03/16 12:02:00;;;;;;;4.63;0.90;;;16.80;40.60;;;;;;5013466;28;20041;-71
2023/03/16 12:04:51;;;;;;;4.40;2.30;;;16.00;41.50;;;;;;5014500;28;20096;-72
2023/03/16 12:07:43;;;;;;;3.55;1.13;;;15.50;42.30;;;;;;5014573;28;20352;-71
2023/03/16 12:10:25;;;;;;;6.47;0.98;;;15.50;42.90;;;;;;5013071;28;20369;-70
2023/03/16 12:13:09;;;;;;;2.33;0.73;;;14.90;44.20;;;;;;5013039;28;20022;-71
2023/03/16 12:15:50;;;;;;;6.90;1.10;;;15.00;43.80;;;;;;5013048;28;20049;-70
2023/03/16 12:18:40;;;;;;;4.05;1.10;;;14.80;43.80;;;;;;5013868;28;20022;-71
2023/03/16 12:21:27;;;;;;;4.20;1.15;;;14.70;43.50;;;;;;5012777;28;20034;-73
2023/03/16 12:23:56;;;;;;;1.95;0.80;;;14.20;43.30;;;;;;5014460;28;20022;-70
2023/03/16 12:26:28;;;;;;;2.17;0.80;;;13.80;43.20;;;;;;5013858;28;20053;-70
2023/03/16 12:28:56;;;;;;;3.85;0.75;;;13.60;43.80;;;;;;5014095;28;20049;-70
2023/03/16 12:31:27;;;;;;;2.80;0.68;;;13.70;44.70;;;;;;5013258;28;20046;-74
2023/03/16 12:34:17;;;;;;;2.17;0.88;;;13.70;44.90;;;;;;5013733;28;20034;-74
2023/03/16 12:37:20;;;;;;;1.42;0.63;;;13.60;45.60;;;;;;5013722;28;20037;-70
2023/03/16 12:40:08;;;;;;;3.08;1.10;;;13.50;45.30;;;;;;5013579;28;20080;-69
2023/03/16 12:43:00;;;;;;;3.15;1.08;;;13.70;46.00;;;;;;5013722;28;20088;-68
2023/03/16 12:45:45;;;;;;;2.15;0.90;;;13.60;46.40;;;;;;5014027;28;20041;-70
2023/03/16 12:48:23;;;;;;;2.35;1.00;;;13.70;47.20;;;;;;5012748;28;20641;-72
2023/03/16 12:50:55;;;;;;;2.65;1.15;;;13.90;46.60;;;;;;5014449;28;20043;-71
2023/03/16 12:53:27;;;;;;;3.40;1.30;;;13.80;47.20;;;;;;5013406;28;20037;-71
2023/03/16 12:55:55;;;;;;;3.53;2.03;;;13.60;48.40;;;;;;5012260;28;20030;-70
2023/03/16 12:58:23;;;;;;;4.35;1.67;;;13.70;48.80;;;;;;5013376;28;20110;-69
2023/03/16 13:00:56;;;;;;;4.30;0.93;;;13.60;49.20;;;;;;5012222;28;20045;-69
2023/03/16 13:03:24;;;;;;;4.35;0.80;;;13.50;48.10;;;;;;5013201;28;20045;-68
2023/03/16 13:05:53;;;;;;;3.03;0.90;;;13.20;47.50;;;;;;5013158;28;20059;-70
2023/03/16 13:08:20;;;;;;;2.92;1.10;;;13.10;48.10;;;;;;5013025;28;20030;-68
2023/03/16 13:11:06;;;;;;;3.57;1.03;;;13.00;48.60;;;;;;5013266;28;20049;-71
2023/03/16 13:13:32;;;;;;;3.22;1.20;;;13.00;48.90;;;;;;5013088;28;20161;-73
2023/03/16 13:16:08;;;;;;;3.35;1.10;;;12.70;49.50;;;;;;5012104;28;20364;-72